Terminal Aerodrome Forecast
Issued by NWS

Home | Current Version | Previous Version | Text Only | Print | Product List | Glossary On
Versions: 1 2 3 4 5 6 7 8 9 10 11 12 13 14 15 16
000
FTUS45 KRIW 291120
TAFJAC
TAF
KJAC 291120Z 2912/3012 35006KT P6SM SCT100
     FM292100 VRB10G16KT P6SM VCTS BKN060CB
     FM300100 VRB06KT P6SM VCSH BKN080
     FM300500 35006KT P6SM SCT080
      AMD LTD TO CLD VIS AND WIND=

USA.gov is the U.S. government's official web portal to all federal, state and local government web resources and services.